sensor_id;sensor_type;location;lat;lon;timestamp;P1;durP1;ratioP1;P2;durP2;ratioP2
26824;SDS011;14402;48.178;11.566;2023-03-02T00:00:14;20.9;;;16.9;;
26824;SDS011;14402;48.178;11.566;2023-03-02T00:00:44;20.8;;;16.5;;
26824;SDS011;14402;48.178;11.566;2023-03-02T00:01:14;20.7;;;16.2;;
26824;SDS011;14402;48.178;11.566;2023-03-02T00:01:46;20.7;;;16.2;;
26824;SDS011;14402;48.178;11.566;2023-03-02T00:02:15;20.7;;;16.2;;
26824;SDS011;14402;48.178;11.566;2023-03-02T00:02:45;22.5;;;16.6;;
26824;SDS011;14402;48.178;11.566;2023-03-02T00:03:15;24.3;;;17.0;;
26824;SDS011;14402;48.178;11.566;2023-03-02T00:03:45;24.3;;;17.0;;
26824;SDS011;14402;48.178;11.566;2023-03-02T00:04:15;24.3;;;17.0;;
26824;SDS011;14402;48.178;11.566;2023-03-02T00:04:46;24.1;;;17.0;;
26824;SDS011;14402;48.178;11.566;2023-03-02T00:05:15;24.0;;;17.0;;
26824;SDS011;14402;48.178;11.566;2023-03-02T00:05:45;24.0;;;17.0;;
26824;SDS011;14402;48.178;11.566;2023-03-02T00:06:15;24.0;;;17.0;;
26824;SDS011;14402;48.178;11.566;2023-03-02T00:06:45;24.8;;;16.5;;
26824;SDS011;14402;48.178;11.566;2023-03-02T00:07:16;25.6;;;16.1;;
26824;SDS011;14402;48.178;11.566;2023-03-02T00:07:45;25.6;;;16.1;;
26824;SDS011;14402;48.178;11.566;2023-03-02T00:08:16;25.6;;;16.1;;
26824;SDS011;14402;48.178;11.566;2023-03-02T00:08:45;25.1;;;16.5;;
26824;SDS011;14402;48.178;11.566;2023-03-02T00:09:16;24.6;;;17.0;;
26824;SDS011;14402;48.178;11.566;2023-03-02T00:09:46;24.6;;;17.0;;
26824;SDS011;14402;48.178;11.566;2023-03-02T00:10:16;24.6;;;17.0;;
26824;SDS011;14402;48.178;11.566;2023-03-02T00:10:46;25.4;;;16.9;;
26824;SDS011;14402;48.178;11.566;2023-03-02T00:11:16;26.1;;;16.7;;
26824;SDS011;14402;48.178;11.566;2023-03-02T00:11:46;26.1;;;16.7;;
26824;SDS011;14402;48.178;11.566;2023-03-02T00:12:16;26.1;;;16.7;;
26824;SDS011;14402;48.178;11.566;2023-03-02T00:12:46;23.5;;;16.7;;
26824;SDS011;14402;48.178;11.566;2023-03-02T00:13:16;21.0;;;16.6;;
26824;SDS011;14402;48.178;11.566;2023-03-02T00:13:46;21.0;;;16.6;;
26824;SDS011;14402;48.178;11.566;2023-03-02T00:14:16;21.0;;;16.6;;
26824;SDS011;14402;48.178;11.566;2023-03-02T00:14:46;21.0;;;16.6;;
26824;SDS011;14402;48.178;11.566;2023-03-02T00:15:17;21.1;;;16.6;;
26824;SDS011;14402;48.178;11.566;2023-03-02T00:15:47;21.1;;;16.6;;
26824;SDS011;14402;48.178;11.566;2023-03-02T00:16:17;21.1;;;16.6;;
26824;SDS011;14402;48.178;11.566;2023-03-02T00:16:47;24.6;;;16.7;;
26824;SDS011;14402;48.178;11.566;2023-03-02T00:17:17;28.1;;;16.7;;
26824;SDS011;14402;48.178;11.566;2023-03-02T00:17:47;28.1;;;16.7;;
26824;SDS011;14402;48.178;11.566;2023-03-02T00:18:17;28.1;;;16.7;;
26824;SDS011;14402;48.178;11.566;2023-03-02T00:18:47;24.3;;;16.7;;
26824;SDS011;14402;48.178;11.566;2023-03-02T00:19:17;20.5;;;16.7;;
26824;SDS011;14402;48.178;11.566;2023-03-02T00:19:47;20.5;;;16.7;;
26824;SDS011;14402;48.178;11.566;2023-03-02T00:20:17;20.5;;;16.7;;
26824;SDS011;14402;48.178;11.566;2023-03-02T00:20:47;24.1;;;16.8;;
26824;SDS011;14402;48.178;11.566;2023-03-02T00:21:17;27.7;;;16.9;;
26824;SDS011;14402;48.178;11.566;2023-03-02T00:21:48;27.7;;;16.9;;
26824;SDS011;14402;48.178;11.566;2023-03-02T00:22:18;27.7;;;16.9;;
26824;SDS011;14402;48.178;11.566;2023-03-02T00:22:48;25.3;;;16.5;;
26824;SDS011;14402;48.178;11.566;2023-03-02T00:23:18;22.9;;;16.2;;
26824;SDS011;14402;48.178;11.566;2023-03-02T00:23:48;22.9;;;16.2;;
26824;SDS011;14402;48.178;11.566;2023-03-02T00:24:18;22.9;;;16.2;;
26824;SDS011;14402;48.178;11.566;2023-03-02T00:24:48;24.2;;;16.4;;
26824;SDS011;14402;48.178;11.566;2023-03-02T00:25:18;25.5;;;16.5;;
26824;SDS011;14402;48.178;11.566;2023-03-02T00:25:48;25.5;;;16.5;;
26824;SDS011;14402;48.178;11.566;2023-03-02T00:26:18;25.5;;;16.5;;
26824;SDS011;14402;48.178;11.566;2023-03-02T00:26:48;23.1;;;16.4;;
26824;SDS011;14402;48.178;11.566;2023-03-02T00:27:18;20.8;;;16.2;;
26824;SDS011;14402;48.178;11.566;2023-03-02T00:27:49;20.8;;;16.2;;
26824;SDS011;14402;48.178;11.566;2023-03-02T00:28:19;20.8;;;16.2;;
26824;SDS011;14402;48.178;11.566;2023-03-02T00:28:49;22.6;;;16.5;;
26824;SDS011;14402;48.178;11.566;2023-03-02T00:29:19;24.5;;;16.9;;
26824;SDS011;14402;48.178;11.566;2023-03-02T00:29:50;24.5;;;16.9;;
26824;SDS011;14402;48.178;11.566;2023-03-02T00:30:19;24.5;;;16.9;;
26824;SDS011;14402;48.178;11.566;2023-03-02T00:30:49;23.3;;;16.8;;
26824;SDS011;14402;48.178;11.566;2023-03-02T00:31:19;22.1;;;16.6;;
26824;SDS011;14402;48.178;11.566;2023-03-02T00:31:49;22.1;;;16.6;;
26824;SDS011;14402;48.178;11.566;2023-03-02T00:32:19;22.1;;;16.6;;
26824;SDS011;14402;48.178;11.566;2023-03-02T00:32:49;24.2;;;16.8;;
26824;SDS011;14402;48.178;11.566;2023-03-02T00:33:19;26.2;;;16.9;;
26824;SDS011;14402;48.178;11.566;2023-03-02T00:33:50;26.2;;;16.9;;
26824;SDS011;14402;48.178;11.566;2023-03-02T00:34:20;26.2;;;16.9;;
26824;SDS011;14402;48.178;11.566;2023-03-02T00:34:50;24.0;;;17.0;;
26824;SDS011;14402;48.178;11.566;2023-03-02T00:35:20;21.8;;;17.0;;
26824;SDS011;14402;48.178;11.566;2023-03-02T00:35:50;21.8;;;17.0;;
26824;SDS011;14402;48.178;11.566;2023-03-02T00:36:21;21.8;;;17.0;;
26824;SDS011;14402;48.178;11.566;2023-03-02T00:36:50;21.5;;;16.6;;
26824;SDS011;14402;48.178;11.566;2023-03-02T00:37:20;21.3;;;16.2;;
26824;SDS011;14402;48.178;11.566;2023-03-02T00:37:50;21.3;;;16.2;;
26824;SDS011;14402;48.178;11.566;2023-03-02T00:38:20;21.3;;;16.2;;
26824;SDS011;14402;48.178;11.566;2023-03-02T00:38:50;21.5;;;16.5;;
26824;SDS011;14402;48.178;11.566;2023-03-02T00:39:20;21.7;;;16.7;;
26824;SDS011;14402;48.178;11.566;2023-03-02T00:39:51;21.7;;;16.7;;
26824;SDS011;14402;48.178;11.566;2023-03-02T00:40:21;21.7;;;16.7;;
26824;SDS011;14402;48.178;11.566;2023-03-02T00:40:51;21.7;;;16.7;;
26824;SDS011;14402;48.178;11.566;2023-03-02T00:41:21;21.6;;;16.7;;
26824;SDS011;14402;48.178;11.566;2023-03-02T00:41:51;21.6;;;16.7;;
26824;SDS011;14402;48.178;11.566;2023-03-02T00:42:21;21.6;;;16.7;;
26824;SDS011;14402;48.178;11.566;2023-03-02T00:42:51;21.0;;;16.8;;
26824;SDS011;14402;48.178;11.566;2023-03-02T00:43:22;20.5;;;16.9;;
26824;SDS011;14402;48.178;11.566;2023-03-02T00:43:51;20.5;;;16.9;;
26824;SDS011;14402;48.178;11.566;2023-03-02T00:44:22;20.5;;;16.9;;
26824;SDS011;14402;48.178;11.566;2023-03-02T00:44:52;20.8;;;16.8;;
26824;SDS011;14402;48.178;11.566;2023-03-02T00:45:22;21.0;;;16.6;;
26824;SDS011;14402;48.178;11.566;2023-03-02T00:45:52;21.0;;;16.6;;
26824;SDS011;14402;48.178;11.566;2023-03-02T00:46:22;21.0;;;16.6;;
26824;SDS011;14402;48.178;11.566;2023-03-02T00:46:52;20.0;;;16.2;;
26824;SDS011;14402;48.178;11.566;2023-03-02T00:47:22;19.0;;;15.9;;
26824;SDS011;14402;48.178;11.566;2023-03-02T00:47:52;19.0;;;15.9;;
26824;SDS011;14402;48.178;11.566;2023-03-02T00:48:22;19.0;;;15.9;;
26824;SDS011;14402;48.178;11.566;2023-03-02T00:48:52;20.0;;;16.4;;
26824;SDS011;14402;48.178;11.566;2023-03-02T00:49:22;21.1;;;16.9;;
26824;SDS011;14402;48.178;11.566;2023-03-02T00:49:52;21.1;;;16.9;;
26824;SDS011;14402;48.178;11.566;2023-03-02T00:50:23;21.1;;;16.9;;
26824;SDS011;14402;48.178;11.566;2023-03-02T00:50:52;21.1;;;16.8;;
26824;SDS011;14402;48.178;11.566;2023-03-02T00:51:23;21.1;;;16.8;;
26824;SDS011;14402;48.178;11.566;2023-03-02T00:51:53;21.1;;;16.8;;
26824;SDS011;14402;48.178;11.566;2023-03-02T00:52:23;21.1;;;16.8;;
26824;SDS011;14402;48.178;11.566;2023-03-02T00:52:53;23.9;;;16.8;;
26824;SDS011;14402;48.178;11.566;2023-03-02T00:53:23;26.6;;;16.8;;
26824;SDS011;14402;48.178;11.566;2023-03-02T00:53:53;26.6;;;16.8;;
26824;SDS011;14402;48.178;11.566;2023-03-02T00:54:23;26.6;;;16.8;;
26824;SDS011;14402;48.178;11.566;2023-03-02T00:54:53;24.9;;;16.8;;
26824;SDS011;14402;48.178;11.566;2023-03-02T00:55:23;23.1;;;16.9;;
26824;SDS011;14402;48.178;11.566;2023-03-02T00:55:53;23.1;;;16.9;;
26824;SDS011;14402;48.178;11.566;2023-03-02T00:56:23;23.1;;;16.9;;
26824;SDS011;14402;48.178;11.566;2023-03-02T00:56:54;22.1;;;17.0;;
26824;SDS011;14402;48.178;11.566;2023-03-02T00:57:24;21.1;;;17.2;;
26824;SDS011;14402;48.178;11.566;2023-03-02T00:57:54;21.1;;;17.2;;
26824;SDS011;14402;48.178;11.566;2023-03-02T00:58:24;21.1;;;17.2;;
26824;SDS011;14402;48.178;11.566;2023-03-02T00:58:54;21.5;;;17.2;;
26824;SDS011;14402;48.178;11.566;2023-03-02T00:59:24;21.8;;;17.2;;
26824;SDS011;14402;48.178;11.566;2023-03-02T00:59:54;21.8;;;17.2;;
26824;SDS011;14402;48.178;11.566;2023-03-02T01:00:24;21.8;;;17.2;;
26824;SDS011;14402;48.178;11.566;2023-03-02T01:00:54;21.4;;;16.8;;
26824;SDS011;14402;48.178;11.566;2023-03-02T01:01:24;21.0;;;16.4;;
26824;SDS011;14402;48.178;11.566;2023-03-02T01:01:56;21.0;;;16.4;;
26824;SDS011;14402;48.178;11.566;2023-03-02T01:02:25;21.0;;;16.4;;
26824;SDS011;14402;48.178;11.566;2023-03-02T01:02:55;22.8;;;17.0;;
26824;SDS011;14402;48.178;11.566;2023-03-02T01:03:25;24.6;;;17.6;;
26824;SDS011;14402;48.178;11.566;2023-03-02T01:03:55;24.6;;;17.6;;
26824;SDS011;14402;48.178;11.566;2023-03-02T01:04:25;24.6;;;17.6;;
26824;SDS011;14402;48.178;11.566;2023-03-02T01:04:55;22.8;;;17.7;;
26824;SDS011;14402;48.178;11.566;2023-03-02T01:05:25;21.0;;;17.7;;
26824;SDS011;14402;48.178;11.566;2023-03-02T01:05:55;21.0;;;17.7;;
26824;SDS011;14402;48.178;11.566;2023-03-02T01:06:25;21.0;;;17.7;;
26824;SDS011;14402;48.178;11.566;2023-03-02T01:06:55;21.5;;;17.3;;
26824;SDS011;14402;48.178;11.566;2023-03-02T01:07:25;21.9;;;16.9;;
26824;SDS011;14402;48.178;11.566;2023-03-02T01:07:55;21.9;;;16.9;;
26824;SDS011;14402;48.178;11.566;2023-03-02T01:08:25;21.9;;;16.9;;
26824;SDS011;14402;48.178;11.566;2023-03-02T01:08:55;21.0;;;17.3;;
26824;SDS011;14402;48.178;11.566;2023-03-02T01:09:26;20.0;;;17.8;;
26824;SDS011;14402;48.178;11.566;2023-03-02T01:09:56;20.0;;;17.8;;
26824;SDS011;14402;48.178;11.566;2023-03-02T01:10:26;20.0;;;17.8;;
26824;SDS011;14402;48.178;11.566;2023-03-02T01:10:56;21.2;;;17.7;;
26824;SDS011;14402;48.178;11.566;2023-03-02T01:11:26;22.4;;;17.6;;
26824;SDS011;14402;48.178;11.566;2023-03-02T01:11:56;22.4;;;17.6;;
26824;SDS011;14402;48.178;11.566;2023-03-02T01:12:26;22.4;;;17.6;;
26824;SDS011;14402;48.178;11.566;2023-03-02T01:12:56;24.2;;;17.5;;
26824;SDS011;14402;48.178;11.566;2023-03-02T01:13:27;26.1;;;17.4;;
26824;SDS011;14402;48.178;11.566;2023-03-02T01:13:56;26.1;;;17.4;;
26824;SDS011;14402;48.178;11.566;2023-03-02T01:14:27;26.1;;;17.4;;
26824;SDS011;14402;48.178;11.566;2023-03-02T01:14:56;23.5;;;17.3;;
26824;SDS011;14402;48.178;11.566;2023-03-02T01:15:26;20.9;;;17.2;;
26824;SDS011;14402;48.178;11.566;2023-03-02T01:15:59;20.9;;;17.2;;
26824;SDS011;14402;48.178;11.566;2023-03-02T01:16:27;20.9;;;17.2;;
26824;SDS011;14402;48.178;11.566;2023-03-02T01:16:57;21.8;;;17.5;;
26824;SDS011;14402;48.178;11.566;2023-03-02T01:17:28;22.8;;;17.7;;
26824;SDS011;14402;48.178;11.566;2023-03-02T01:17:57;22.8;;;17.7;;
26824;SDS011;14402;48.178;11.566;2023-03-02T01:18:27;22.8;;;17.7;;
26824;SDS011;14402;48.178;11.566;2023-03-02T01:18:57;25.0;;;17.6;;
26824;SDS011;14402;48.178;11.566;2023-03-02T01:19:27;27.1;;;17.5;;
26824;SDS011;14402;48.178;11.566;2023-03-02T01:19:57;27.1;;;17.5;;
26824;SDS011;14402;48.178;11.566;2023-03-02T01:20:28;27.1;;;17.5;;
26824;SDS011;14402;48.178;11.566;2023-03-02T01:20:59;25.5;;;17.6;;
26824;SDS011;14402;48.178;11.566;2023-03-02T01:21:28;23.8;;;17.7;;
26824;SDS011;14402;48.178;11.566;2023-03-02T01:21:58;23.8;;;17.7;;
26824;SDS011;14402;48.178;11.566;2023-03-02T01:22:28;23.8;;;17.7;;
26824;SDS011;14402;48.178;11.566;2023-03-02T01:22:58;22.0;;;17.4;;
26824;SDS011;14402;48.178;11.566;2023-03-02T01:23:28;20.1;;;17.1;;
26824;SDS011;14402;48.178;11.566;2023-03-02T01:23:58;20.1;;;17.1;;
26824;SDS011;14402;48.178;11.566;2023-03-02T01:24:28;20.1;;;17.1;;
26824;SDS011;14402;48.178;11.566;2023-03-02T01:24:58;21.0;;;17.2;;
26824;SDS011;14402;48.178;11.566;2023-03-02T01:25:28;22.0;;;17.3;;
26824;SDS011;14402;48.178;11.566;2023-03-02T01:25:58;22.0;;;17.3;;
26824;SDS011;14402;48.178;11.566;2023-03-02T01:26:28;22.0;;;17.3;;
26824;SDS011;14402;48.178;11.566;2023-03-02T01:26:58;23.8;;;17.8;;
26824;SDS011;14402;48.178;11.566;2023-03-02T01:27:28;25.5;;;18.4;;
26824;SDS011;14402;48.178;11.566;2023-03-02T01:27:59;25.5;;;18.4;;
26824;SDS011;14402;48.178;11.566;2023-03-02T01:28:29;25.5;;;18.4;;
26824;SDS011;14402;48.178;11.566;2023-03-02T01:28:59;24.9;;;18.0;;
26824;SDS011;14402;48.178;11.566;2023-03-02T01:29:29;24.3;;;17.5;;
26824;SDS011;14402;48.178;11.566;2023-03-02T01:29:59;24.3;;;17.5;;
26824;SDS011;14402;48.178;11.566;2023-03-02T01:30:29;24.3;;;17.5;;
26824;SDS011;14402;48.178;11.566;2023-03-02T01:30:59;23.8;;;17.8;;
26824;SDS011;14402;48.178;11.566;2023-03-02T01:31:29;23.2;;;18.1;;
26824;SDS011;14402;48.178;11.566;2023-03-02T01:31:59;23.2;;;18.1;;
26824;SDS011;14402;48.178;11.566;2023-03-02T01:32:29;23.2;;;18.1;;
26824;SDS011;14402;48.178;11.566;2023-03-02T01:32:59;22.4;;;18.2;;
26824;SDS011;14402;48.178;11.566;2023-03-02T01:33:30;21.6;;;18.3;;
26824;SDS011;14402;48.178;11.566;2023-03-02T01:34:00;21.6;;;18.3;;
26824;SDS011;14402;48.178;11.566;2023-03-02T01:34:30;21.6;;;18.3;;
26824;SDS011;14402;48.178;11.566;2023-03-02T01:35:00;23.2;;;18.1;;
26824;SDS011;14402;48.178;11.566;2023-03-02T01:35:30;24.8;;;17.9;;
26824;SDS011;14402;48.178;11.566;2023-03-02T01:36:00;24.8;;;17.9;;
26824;SDS011;14402;48.178;11.566;2023-03-02T01:36:30;24.8;;;17.9;;
26824;SDS011;14402;48.178;11.566;2023-03-02T01:37:00;23.5;;;17.6;;
26824;SDS011;14402;48.178;11.566;2023-03-02T01:37:30;22.3;;;17.4;;
26824;SDS011;14402;48.178;11.566;2023-03-02T01:38:00;22.3;;;17.4;;
26824;SDS011;14402;48.178;11.566;2023-03-02T01:38:30;22.3;;;17.4;;
26824;SDS011;14402;48.178;11.566;2023-03-02T01:39:00;25.8;;;17.6;;
26824;SDS011;14402;48.178;11.566;2023-03-02T01:39:30;29.4;;;17.9;;
26824;SDS011;14402;48.178;11.566;2023-03-02T01:40:00;29.4;;;17.9;;
26824;SDS011;14402;48.178;11.566;2023-03-02T01:40:30;26.6;;;17.5;;
26824;SDS011;14402;48.178;11.566;2023-03-02T01:41:01;23.8;;;17.2;;
26824;SDS011;14402;48.178;11.566;2023-03-02T01:41:31;23.8;;;17.2;;
26824;SDS011;14402;48.178;11.566;2023-03-02T01:42:01;23.8;;;17.2;;
26824;SDS011;14402;48.178;11.566;2023-03-02T01:42:32;21.8;;;17.2;;
26824;SDS011;14402;48.178;11.566;2023-03-02T01:43:01;19.7;;;17.2;;
26824;SDS011;14402;48.178;11.566;2023-03-02T01:43:31;19.7;;;17.2;;
26824;SDS011;14402;48.178;11.566;2023-03-02T01:44:01;19.7;;;17.2;;
26824;SDS011;14402;48.178;11.566;2023-03-02T01:44:32;20.6;;;17.4;;
26824;SDS011;14402;48.178;11.566;2023-03-02T01:45:01;21.5;;;17.5;;
26824;SDS011;14402;48.178;11.566;2023-03-02T01:45:48;21.5;;;17.5;;
26824;SDS011;14402;48.178;11.566;2023-03-02T01:46:02;21.5;;;17.5;;
26824;SDS011;14402;48.178;11.566;2023-03-02T01:46:31;23.8;;;17.8;;
26824;SDS011;14402;48.178;11.566;2023-03-02T01:47:02;26.1;;;18.0;;
26824;SDS011;14402;48.178;11.566;2023-03-02T01:47:32;26.1;;;18.0;;
26824;SDS011;14402;48.178;11.566;2023-03-02T01:48:02;26.1;;;18.0;;
26824;SDS011;14402;48.178;11.566;2023-03-02T01:48:33;24.5;;;18.4;;
26824;SDS011;14402;48.178;11.566;2023-03-02T01:49:02;23.0;;;18.8;;
26824;SDS011;14402;48.178;11.566;2023-03-02T01:49:32;23.0;;;18.8;;
26824;SDS011;14402;48.178;11.566;2023-03-02T01:50:03;23.0;;;18.8;;
26824;SDS011;14402;48.178;11.566;2023-03-02T01:50:32;23.4;;;18.2;;
26824;SDS011;14402;48.178;11.566;2023-03-02T01:51:02;23.8;;;17.7;;
26824;SDS011;14402;48.178;11.566;2023-03-02T01:51:34;23.8;;;17.7;;
26824;SDS011;14402;48.178;11.566;2023-03-02T01:52:03;23.8;;;17.7;;
26824;SDS011;14402;48.178;11.566;2023-03-02T01:52:33;23.6;;;17.5;;
26824;SDS011;14402;48.178;11.566;2023-03-02T01:53:03;23.5;;;17.3;;
26824;SDS011;14402;48.178;11.566;2023-03-02T01:53:33;23.5;;;17.3;;
26824;SDS011;14402;48.178;11.566;2023-03-02T01:54:04;23.5;;;17.3;;
26824;SDS011;14402;48.178;11.566;2023-03-02T01:54:33;23.0;;;17.6;;
26824;SDS011;14402;48.178;11.566;2023-03-02T01:55:03;22.6;;;17.9;;
26824;SDS011;14402;48.178;11.566;2023-03-02T01:55:33;22.6;;;17.9;;
26824;SDS011;14402;48.178;11.566;2023-03-02T01:56:03;22.6;;;17.9;;
26824;SDS011;14402;48.178;11.566;2023-03-02T01:56:34;23.5;;;18.1;;
26824;SDS011;14402;48.178;11.566;2023-03-02T01:57:03;24.5;;;18.4;;
26824;SDS011;14402;48.178;11.566;2023-03-02T01:57:34;24.5;;;18.4;;
26824;SDS011;14402;48.178;11.566;2023-03-02T01:58:03;24.5;;;18.4;;
26824;SDS011;14402;48.178;11.566;2023-03-02T01:58:33;23.5;;;17.9;;
26824;SDS011;14402;48.178;11.566;2023-03-02T01:59:04;22.5;;;17.4;;
26824;SDS011;14402;48.178;11.566;2023-03-02T01:59:34;22.5;;;17.4;;
26824;SDS011;14402;48.178;11.566;2023-03-02T02:00:04;22.5;;;17.4;;
26824;SDS011;14402;48.178;11.566;2023-03-02T02:00:35;23.6;;;17.5;;
26824;SDS011;14402;48.178;11.566;2023-03-02T02:01:04;24.7;;;17.5;;
26824;SDS011;14402;48.178;11.566;2023-03-02T02:01:35;24.7;;;17.5;;
26824;SDS011;14402;48.178;11.566;2023-03-02T02:02:05;24.7;;;17.5;;
26824;SDS011;14402;48.178;11.566;2023-03-02T02:02:34;24.7;;;17.7;;
26824;SDS011;14402;48.178;11.566;2023-03-02T02:03:05;24.6;;;17.9;;
26824;SDS011;14402;48.178;11.566;2023-03-02T02:03:34;24.6;;;17.9;;
26824;SDS011;14402;48.178;11.566;2023-03-02T02:04:04;24.6;;;17.9;;
26824;SDS011;14402;48.178;11.566;2023-03-02T02:04:35;22.6;;;18.0;;
26824;SDS011;14402;48.178;11.566;2023-03-02T02:05:04;20.6;;;18.0;;
26824;SDS011;14402;48.178;11.566;2023-03-02T02:05:35;20.6;;;18.0;;
26824;SDS011;14402;48.178;11.566;2023-03-02T02:06:08;20.6;;;18.0;;
26824;SDS011;14402;48.178;11.566;2023-03-02T02:06:36;21.7;;;18.1;;
26824;SDS011;14402;48.178;11.566;2023-03-02T02:07:06;22.8;;;18.2;;
26824;SDS011;14402;48.178;11.566;2023-03-02T02:07:35;22.8;;;18.2;;
26824;SDS011;14402;48.178;11.566;2023-03-02T02:08:05;22.8;;;18.2;;
26824;SDS011;14402;48.178;11.566;2023-03-02T02:08:35;23.5;;;18.4;;
26824;SDS011;14402;48.178;11.566;2023-03-02T02:09:05;24.3;;;18.6;;
26824;SDS011;14402;48.178;11.566;2023-03-02T02:09:37;24.3;;;18.6;;
26824;SDS011;14402;48.178;11.566;2023-03-02T02:10:06;24.3;;;18.6;;
26824;SDS011;14402;48.178;11.566;2023-03-02T02:10:35;23.2;;;18.2;;
26824;SDS011;14402;48.178;11.566;2023-03-02T02:11:05;22.1;;;17.9;;
26824;SDS011;14402;48.178;11.566;2023-03-02T02:11:36;22.1;;;17.9;;
26824;SDS011;14402;48.178;11.566;2023-03-02T02:12:10;22.1;;;17.9;;
26824;SDS011;14402;48.178;11.566;2023-03-02T02:12:36;23.2;;;18.2;;
26824;SDS011;14402;48.178;11.566;2023-03-02T02:13:07;24.3;;;18.5;;
26824;SDS011;14402;48.178;11.566;2023-03-02T02:13:36;24.3;;;18.5;;
26824;SDS011;14402;48.178;11.566;2023-03-02T02:14:06;24.3;;;18.5;;
26824;SDS011;14402;48.178;11.566;2023-03-02T02:14:36;23.0;;;18.2;;
26824;SDS011;14402;48.178;11.566;2023-03-02T02:15:06;21.8;;;17.9;;
26824;SDS011;14402;48.178;11.566;2023-03-02T02:15:36;21.8;;;17.9;;
26824;SDS011;14402;48.178;11.566;2023-03-02T02:16:06;21.8;;;17.9;;
26824;SDS011;14402;48.178;11.566;2023-03-02T02:16:36;21.8;;;17.9;;
26824;SDS011;14402;48.178;11.566;2023-03-02T02:17:08;21.8;;;17.9;;
26824;SDS011;14402;48.178;11.566;2023-03-02T02:17:36;21.8;;;17.9;;
26824;SDS011;14402;48.178;11.566;2023-03-02T02:18:07;21.8;;;17.9;;
26824;SDS011;14402;48.178;11.566;2023-03-02T02:18:37;22.2;;;18.2;;
26824;SDS011;14402;48.178;11.566;2023-03-02T02:19:09;22.7;;;18.5;;
26824;SDS011;14402;48.178;11.566;2023-03-02T02:19:40;22.7;;;18.5;;
26824;SDS011;14402;48.178;11.566;2023-03-02T02:20:11;22.7;;;18.5;;
26824;SDS011;14402;48.178;11.566;2023-03-02T02:20:38;21.0;;;17.9;;
26824;SDS011;14402;48.178;11.566;2023-03-02T02:21:07;19.3;;;17.3;;
26824;SDS011;14402;48.178;11.566;2023-03-02T02:21:37;19.3;;;17.3;;
26824;SDS011;14402;48.178;11.566;2023-03-02T02:22:07;19.3;;;17.3;;
26824;SDS011;14402;48.178;11.566;2023-03-02T02:22:39;21.5;;;17.2;;
26824;SDS011;14402;48.178;11.566;2023-03-02T02:23:13;23.8;;;17.2;;
26824;SDS011;14402;48.178;11.566;2023-03-02T02:23:39;23.8;;;17.2;;
26824;SDS011;14402;48.178;11.566;2023-03-02T02:24:08;23.8;;;17.2;;
26824;SDS011;14402;48.178;11.566;2023-03-02T02:24:38;22.3;;;17.8;;
26824;SDS011;14402;48.178;11.566;2023-03-02T02:25:10;20.8;;;18.4;;
26824;SDS011;14402;48.178;11.566;2023-03-02T02:25:42;20.8;;;18.4;;
26824;SDS011;14402;48.178;11.566;2023-03-02T02:26:11;20.8;;;18.4;;
26824;SDS011;14402;48.178;11.566;2023-03-02T02:26:38;22.0;;;18.5;;
26824;SDS011;14402;48.178;11.566;2023-03-02T02:27:08;23.1;;;18.5;;
26824;SDS011;14402;48.178;11.566;2023-03-02T02:27:38;23.1;;;18.5;;
26824;SDS011;14402;48.178;11.566;2023-03-02T02:28:09;23.1;;;18.5;;
26824;SDS011;14402;48.178;11.566;2023-03-02T02:28:40;23.8;;;18.3;;
26824;SDS011;14402;48.178;11.566;2023-03-02T02:29:09;24.5;;;18.1;;
26824;SDS011;14402;48.178;11.566;2023-03-02T02:29:40;24.5;;;18.1;;
26824;SDS011;14402;48.178;11.566;2023-03-02T02:30:09;24.5;;;18.1;;
26824;SDS011;14402;48.178;11.566;2023-03-02T02:30:38;23.1;;;18.4;;
26824;SDS011;14402;48.178;11.566;2023-03-02T02:31:10;21.8;;;18.7;;
26824;SDS011;14402;48.178;11.566;2023-03-02T02:31:39;21.8;;;18.7;;
26824;SDS011;14402;48.178;11.566;2023-03-02T02:32:10;21.8;;;18.7;;
26824;SDS011;14402;48.178;11.566;2023-03-02T02:32:39;22.3;;;18.7;;
26824;SDS011;14402;48.178;11.566;2023-03-02T02:33:10;22.9;;;18.7;;
26824;SDS011;14402;48.178;11.566;2023-03-02T02:33:39;22.9;;;18.7;;
26824;SDS011;14402;48.178;11.566;2023-03-02T02:34:10;22.9;;;18.7;;
26824;SDS011;14402;48.178;11.566;2023-03-02T02:34:40;23.0;;;18.2;;
26824;SDS011;14402;48.178;11.566;2023-03-02T02:35:10;23.1;;;17.7;;
26824;SDS011;14402;48.178;11.566;2023-03-02T02:35:39;23.1;;;17.7;;
26824;SDS011;14402;48.178;11.566;2023-03-02T02:36:12;23.1;;;17.7;;
26824;SDS011;14402;48.178;11.566;2023-03-02T02:36:40;26.2;;;18.1;;
26824;SDS011;14402;48.178;11.566;2023-03-02T02:37:10;29.4;;;18.5;;
26824;SDS011;14402;48.178;11.566;2023-03-02T02:37:41;29.4;;;18.5;;
26824;SDS011;14402;48.178;11.566;2023-03-02T02:38:10;29.4;;;18.5;;
26824;SDS011;14402;48.178;11.566;2023-03-02T02:38:40;28.3;;;18.9;;
26824;SDS011;14402;48.178;11.566;2023-03-02T02:39:13;27.2;;;19.3;;
26824;SDS011;14402;48.178;11.566;2023-03-02T02:39:41;27.2;;;19.3;;
26824;SDS011;14402;48.178;11.566;2023-03-02T02:40:11;27.2;;;19.3;;
26824;SDS011;14402;48.178;11.566;2023-03-02T02:40:42;25.8;;;18.6;;
26824;SDS011;14402;48.178;11.566;2023-03-02T02:41:11;24.3;;;17.9;;
26824;SDS011;14402;48.178;11.566;2023-03-02T02:41:40;24.3;;;17.9;;
26824;SDS011;14402;48.178;11.566;2023-03-02T02:42:11;24.3;;;17.9;;
26824;SDS011;14402;48.178;11.566;2023-03-02T02:42:42;23.0;;;18.2;;
26824;SDS011;14402;48.178;11.566;2023-03-02T02:43:11;21.6;;;18.6;;
26824;SDS011;14402;48.178;11.566;2023-03-02T02:43:41;21.6;;;18.6;;
26824;SDS011;14402;48.178;11.566;2023-03-02T02:44:11;21.6;;;18.6;;
26824;SDS011;14402;48.178;11.566;2023-03-02T02:44:41;22.7;;;18.7;;
26824;SDS011;14402;48.178;11.566;2023-03-02T02:45:16;23.7;;;18.8;;
26824;SDS011;14402;48.178;11.566;2023-03-02T02:45:41;23.7;;;18.8;;
26824;SDS011;14402;48.178;11.566;2023-03-02T02:46:11;23.7;;;18.8;;
26824;SDS011;14402;48.178;11.566;2023-03-02T02:46:41;22.8;;;18.8;;
26824;SDS011;14402;48.178;11.566;2023-03-02T02:47:14;21.8;;;18.9;;
26824;SDS011;14402;48.178;11.566;2023-03-02T02:47:41;21.8;;;18.9;;
26824;SDS011;14402;48.178;11.566;2023-03-02T02:48:12;21.8;;;18.9;;
26824;SDS011;14402;48.178;11.566;2023-03-02T02:48:42;24.1;;;18.6;;
26824;SDS011;14402;48.178;11.566;2023-03-02T02:49:15;26.4;;;18.4;;
26824;SDS011;14402;48.178;11.566;2023-03-02T02:49:42;26.4;;;18.4;;
26824;SDS011;14402;48.178;11.566;2023-03-02T02:50:15;26.4;;;18.4;;
26824;SDS011;14402;48.178;11.566;2023-03-02T02:50:42;25.8;;;18.8;;
26824;SDS011;14402;48.178;11.566;2023-03-02T02:51:14;25.2;;;19.1;;
26824;SDS011;14402;48.178;11.566;2023-03-02T02:51:42;25.2;;;19.1;;
26824;SDS011;14402;48.178;11.566;2023-03-02T02:52:12;25.2;;;19.1;;
26824;SDS011;14402;48.178;11.566;2023-03-02T02:52:42;26.9;;;19.2;;
26824;SDS011;14402;48.178;11.566;2023-03-02T02:53:15;28.6;;;19.3;;
26824;SDS011;14402;48.178;11.566;2023-03-02T02:53:43;28.6;;;19.3;;
26824;SDS011;14402;48.178;11.566;2023-03-02T02:54:13;28.6;;;19.3;;
26824;SDS011;14402;48.178;11.566;2023-03-02T02:54:43;26.9;;;19.1;;
26824;SDS011;14402;48.178;11.566;2023-03-02T02:55:13;25.2;;;18.9;;
26824;SDS011;14402;48.178;11.566;2023-03-02T02:55:43;25.2;;;18.9;;
26824;SDS011;14402;48.178;11.566;2023-03-02T02:56:13;25.2;;;18.9;;
26824;SDS011;14402;48.178;11.566;2023-03-02T02:56:43;25.7;;;19.0;;
26824;SDS011;14402;48.178;11.566;2023-03-02T02:57:13;26.1;;;19.0;;
26824;SDS011;14402;48.178;11.566;2023-03-02T02:57:43;26.1;;;19.0;;
26824;SDS011;14402;48.178;11.566;2023-03-02T02:58:18;26.1;;;19.0;;